Search for airport 
image banner adimage banner ad
image banner ad

SSBD - Sobradinho Airport

Situé à Sobradinho, Brazil

ICAO - SSBD, IATA -

Données fournies par Airmate  

Information générale

Coordonnées: S29°23'47" W52°59'30"
Élévation : 1443 feet MSL.
Variation magnétique : -16° East
Voir autres Aéroports à Rio Grande do Sul

Données opérationnelles

Special qualification required
Heure actuelle UTC:
Heure actuelle locale:
Météo à : SBSM - Santa Maria Airport ( 76 km )
METAR: SBSM 011800Z 10009KT 070V140 9999 SCT030 31/22 Q1010
TAF: TAF SBSM 011500Z 0118/0206 10013KT 9999 SCT040 TX30/0118Z TN23/0203Z RMK PEA
Voir NOTAMs / SUP AIP / TFR affectant cet aéroport [VIEW]
Fréquences de communication: [VIEW]

Pistes:

Coordonnées de l'aéroport

Adresse: Sobradinho Brazil

Vue satellite de SSBD